createdAt,value
2024-03-06T00:01:10.792Z,4.57
2024-03-06T00:03:38.146Z,3.40
2024-03-06T00:06:05.875Z,3.60
2024-03-06T00:08:33.201Z,3.23
2024-03-06T00:11:00.525Z,4.40
2024-03-06T00:13:27.967Z,4.00
2024-03-06T00:15:55.239Z,3.90
2024-03-06T00:18:22.484Z,4.90
2024-03-06T00:20:49.768Z,5.17
2024-03-06T00:23:17.151Z,4.73
2024-03-06T00:25:44.648Z,4.40
2024-03-06T00:28:11.978Z,4.90
2024-03-06T00:30:39.209Z,4.17
2024-03-06T00:33:06.694Z,3.90
2024-03-06T00:35:33.986Z,5.37
2024-03-06T00:38:04.574Z,4.77
2024-03-06T00:40:32.115Z,4.60
2024-03-06T00:42:59.807Z,6.17
2024-03-06T00:45:27.092Z,4.03
2024-03-06T00:47:54.486Z,4.37
2024-03-06T00:50:23.287Z,3.27
2024-03-06T00:52:50.640Z,4.50
2024-03-06T00:55:22.697Z,3.97
2024-03-06T00:57:49.956Z,4.93
2024-03-06T01:00:17.577Z,4.07
2024-03-06T01:02:44.940Z,5.23
2024-03-06T01:05:12.210Z,4.27
2024-03-06T01:07:40.689Z,4.43
2024-03-06T01:10:09.320Z,4.53
2024-03-06T01:12:37.018Z,4.83
2024-03-06T01:15:05.125Z,4.57
2024-03-06T01:17:32.409Z,4.50
2024-03-06T01:20:01.295Z,5.67
2024-03-06T01:22:28.630Z,5.93
2024-03-06T01:24:55.889Z,4.20
2024-03-06T01:27:23.125Z,5.07
2024-03-06T01:29:50.397Z,4.67
2024-03-06T01:32:17.711Z,6.40
2024-03-06T01:34:45.056Z,6.27
2024-03-06T01:37:12.306Z,5.07
2024-03-06T01:39:39.569Z,6.03
2024-03-06T01:42:06.941Z,6.00
2024-03-06T01:44:34.419Z,5.63
2024-03-06T01:47:01.772Z,5.70
2024-03-06T01:49:36.751Z,6.20
2024-03-06T01:52:10.378Z,6.73
2024-03-06T01:54:37.646Z,5.47
2024-03-06T01:57:05.718Z,6.00
2024-03-06T01:59:37.176Z,7.33
2024-03-06T02:02:05.628Z,6.50
2024-03-06T02:04:33.671Z,5.93
2024-03-06T02:07:01.052Z,6.37
2024-03-06T02:09:28.682Z,8.00
2024-03-06T02:11:55.898Z,7.67
2024-03-06T02:14:23.582Z,6.70
2024-03-06T02:16:50.796Z,7.00
2024-03-06T02:19:18.526Z,7.20
2024-03-06T02:21:46.898Z,6.60
2024-03-06T02:24:15.509Z,10.27
2024-03-06T02:26:42.813Z,6.77
2024-03-06T02:29:11.807Z,10.43
2024-03-06T02:31:40.410Z,9.20
2024-03-06T02:34:07.972Z,7.40
2024-03-06T02:36:35.307Z,10.03
2024-03-06T02:39:02.968Z,7.07
2024-03-06T02:41:31.427Z,8.67
2024-03-06T02:43:58.801Z,7.27
2024-03-06T02:46:27.117Z,7.57
2024-03-06T02:48:54.540Z,8.97
2024-03-06T02:51:22.364Z,8.10
2024-03-06T02:53:50.426Z,8.53
2024-03-06T02:56:18.475Z,9.40
2024-03-06T02:58:45.937Z,8.07
2024-03-06T03:01:14.230Z,11.10
2024-03-06T03:03:45.613Z,8.13
2024-03-06T03:06:13.311Z,7.27
2024-03-06T03:08:40.922Z,8.10
2024-03-06T03:11:09.242Z,8.23
2024-03-06T03:13:36.577Z,10.70
2024-03-06T03:16:05.345Z,8.80
2024-03-06T03:18:32.734Z,12.60
2024-03-06T03:20:59.952Z,9.27
2024-03-06T03:23:27.200Z,12.47
2024-03-06T03:25:54.506Z,11.50
2024-03-06T03:28:21.852Z,10.90
2024-03-06T03:30:49.152Z,12.20
2024-03-06T03:33:16.467Z,18.33
2024-03-06T03:35:43.777Z,11.93
2024-03-06T03:38:11.179Z,12.53
2024-03-06T03:40:38.627Z,14.17
2024-03-06T03:43:07.927Z,13.00
2024-03-06T03:45:35.494Z,17.47
2024-03-06T03:48:07.251Z,13.17
2024-03-06T03:50:34.611Z,17.47
2024-03-06T03:53:05.389Z,12.70
2024-03-06T03:55:32.953Z,13.83
2024-03-06T03:58:00.191Z,15.97
2024-03-06T04:00:27.530Z,15.87
2024-03-06T04:02:54.848Z,15.27
2024-03-06T04:05:22.675Z,14.30
2024-03-06T04:07:49.964Z,16.67
2024-03-06T04:10:17.275Z,16.03
2024-03-06T04:12:44.626Z,13.80
2024-03-06T04:15:11.998Z,14.73
2024-03-06T04:17:39.331Z,14.57
2024-03-06T04:20:07.839Z,17.60
2024-03-06T04:22:35.402Z,17.27
2024-03-06T04:25:05.249Z,18.10
2024-03-06T04:27:32.856Z,19.10
2024-03-06T04:30:00.110Z,17.60
2024-03-06T04:32:27.372Z,19.27
2024-03-06T04:34:54.926Z,17.97
2024-03-06T04:37:22.148Z,20.83
2024-03-06T04:39:49.901Z,16.67
2024-03-06T04:42:17.133Z,18.53
2024-03-06T04:44:44.492Z,17.90
2024-03-06T04:47:11.800Z,16.67
2024-03-06T04:49:39.683Z,17.10
2024-03-06T04:52:06.976Z,17.30
2024-03-06T04:54:34.454Z,20.50
2024-03-06T04:57:01.720Z,17.93
2024-03-06T04:59:28.990Z,18.73
2024-03-06T05:01:56.344Z,19.47
2024-03-06T05:59:25.351Z,13.50
2024-03-06T06:01:52.618Z,12.10
2024-03-06T06:04:20.009Z,12.83
2024-03-06T06:06:47.237Z,13.07
2024-03-06T06:09:16.965Z,12.43
2024-03-06T06:11:44.986Z,11.57
2024-03-06T06:14:13.388Z,12.30
2024-03-06T06:16:41.966Z,11.00
2024-03-06T06:19:09.355Z,12.33
2024-03-06T06:21:37.327Z,14.33
2024-03-06T06:24:05.607Z,11.23
2024-03-06T06:26:33.656Z,11.20
2024-03-06T06:29:01.243Z,13.10
2024-03-06T06:31:28.564Z,13.73
2024-03-06T06:33:55.917Z,12.33
2024-03-06T06:36:23.225Z,10.73
2024-03-06T06:38:50.903Z,11.33
2024-03-06T06:41:19.207Z,10.33
2024-03-06T06:43:46.605Z,12.33
2024-03-06T06:46:14.006Z,10.27
2024-03-06T06:48:42.499Z,9.90
2024-03-06T06:51:09.724Z,11.07
2024-03-06T06:53:37.813Z,12.10
2024-03-06T06:56:05.747Z,11.07
2024-03-06T06:58:33.003Z,10.90
2024-03-06T07:01:01.412Z,12.40
2024-03-06T07:03:31.041Z,11.90
2024-03-06T07:05:58.840Z,11.27
2024-03-06T07:08:26.197Z,11.50
2024-03-06T07:10:59.002Z,13.87
2024-03-06T07:13:26.955Z,11.97
2024-03-06T07:15:54.163Z,10.40
2024-03-06T07:18:21.639Z,10.10
2024-03-06T07:20:49.136Z,14.37
2024-03-06T07:23:16.692Z,10.47
2024-03-06T07:25:43.929Z,11.00
2024-03-06T07:28:11.319Z,11.60
2024-03-06T07:30:38.780Z,10.60
2024-03-06T07:33:06.395Z,12.67
2024-03-06T07:35:33.773Z,12.10
2024-03-06T07:38:01.193Z,10.73
2024-03-06T07:40:28.854Z,9.77
2024-03-06T07:42:56.090Z,9.40
2024-03-06T07:45:23.387Z,11.57
2024-03-06T07:47:50.800Z,8.47
2024-03-06T07:50:20.311Z,10.70
2024-03-06T07:52:48.007Z,10.40
2024-03-06T07:55:15.720Z,12.83
2024-03-06T07:57:46.143Z,9.50
2024-03-06T08:00:20.768Z,7.63
2024-03-06T08:02:51.738Z,6.93
2024-03-06T08:05:19.320Z,7.77
2024-03-06T08:07:47.342Z,7.43
2024-03-06T08:10:15.123Z,7.23
2024-03-06T08:12:43.121Z,9.80
2024-03-06T08:15:12.739Z,8.13
2024-03-06T08:17:44.051Z,10.37
2024-03-06T08:20:12.942Z,11.00
2024-03-06T08:22:41.254Z,7.90
2024-03-06T08:25:12.202Z,9.37
2024-03-06T08:27:40.524Z,10.80
2024-03-06T08:30:09.215Z,10.80
2024-03-06T08:32:38.433Z,9.10
2024-03-06T08:35:14.160Z,9.37
2024-03-06T08:37:43.010Z,9.30
2024-03-06T08:40:18.654Z,9.30
2024-03-06T08:42:48.351Z,8.47
2024-03-06T08:45:16.318Z,7.00
2024-03-06T08:47:44.811Z,8.17
2024-03-06T08:50:13.096Z,7.93
2024-03-06T08:52:42.317Z,8.90
2024-03-06T08:55:10.096Z,9.80
2024-03-06T08:57:39.339Z,6.77
2024-03-06T09:00:14.157Z,9.23
2024-03-06T09:02:42.747Z,7.00
2024-03-06T09:05:11.723Z,6.00
2024-03-06T09:07:42.103Z,6.67
2024-03-06T09:10:10.965Z,7.67
2024-03-06T09:12:38.556Z,6.77
2024-03-06T09:15:08.223Z,9.20
2024-03-06T09:17:35.974Z,10.53
2024-03-06T09:20:13.927Z,8.10
2024-03-06T09:22:43.027Z,8.70
2024-03-06T09:25:10.922Z,9.10
2024-03-06T09:27:38.247Z,7.57
2024-03-06T09:30:05.784Z,9.20
2024-03-06T09:32:33.586Z,7.60
2024-03-06T09:35:01.782Z,8.73
2024-03-06T09:37:29.658Z,7.57
2024-03-06T09:39:57.925Z,8.60
2024-03-06T09:42:25.712Z,8.20
2024-03-06T09:44:53.103Z,7.83
2024-03-06T09:47:26.234Z,7.80
2024-03-06T09:49:55.292Z,7.03
2024-03-06T09:52:23.758Z,8.87
2024-03-06T09:54:52.961Z,7.77
2024-03-06T09:57:20.582Z,8.53
2024-03-06T09:59:48.024Z,8.47
2024-03-06T10:02:33.007Z,11.47
2024-03-06T10:05:00.718Z,8.37
2024-03-06T10:07:28.634Z,8.30
2024-03-06T10:09:57.001Z,8.80
2024-03-06T10:12:24.927Z,11.10
2024-03-06T10:14:52.803Z,8.40
2024-03-06T10:17:24.135Z,8.17
2024-03-06T10:19:52.903Z,8.67
2024-03-06T10:22:21.303Z,9.20
2024-03-06T10:24:48.799Z,7.60
2024-03-06T10:27:19.880Z,7.97
2024-03-06T10:29:47.300Z,6.17
2024-03-06T10:32:20.537Z,6.77
2024-03-06T10:34:47.980Z,6.70
2024-03-06T10:37:16.271Z,5.97
2024-03-06T10:39:45.690Z,6.10
2024-03-06T10:42:15.241Z,7.77
2024-03-06T10:44:49.698Z,6.10
2024-03-06T10:47:17.372Z,6.63
2024-03-06T10:49:45.730Z,8.43
2024-03-06T10:52:13.809Z,6.70
2024-03-06T10:54:43.250Z,5.90
2024-03-06T10:57:11.800Z,6.47
2024-03-06T10:59:39.430Z,6.77
2024-03-06T11:02:09.936Z,7.70
2024-03-06T11:04:38.130Z,6.20
2024-03-06T11:07:06.148Z,5.50
2024-03-06T11:09:37.161Z,5.27
2024-03-06T11:12:04.777Z,5.07
2024-03-06T11:14:38.194Z,5.57
2024-03-06T11:17:06.452Z,5.00
2024-03-06T11:19:34.334Z,5.93
2024-03-06T11:22:02.161Z,4.70
2024-03-06T11:24:35.762Z,4.80
2024-03-06T11:27:06.636Z,4.87
2024-03-06T11:29:52.819Z,4.93
2024-03-06T11:32:20.310Z,5.33
2024-03-06T11:34:47.673Z,7.10
2024-03-06T11:37:15.030Z,5.13
2024-03-06T11:39:45.137Z,7.00
2024-03-06T11:42:15.614Z,5.57
2024-03-06T11:44:56.629Z,5.53
2024-03-06T11:47:24.272Z,6.13
2024-03-06T11:49:51.970Z,5.70
2024-03-06T11:52:19.236Z,7.33
2024-03-06T11:54:46.944Z,5.33
2024-03-06T11:57:17.321Z,4.90
2024-03-06T11:59:44.846Z,4.60
2024-03-06T12:02:12.374Z,5.13
2024-03-06T12:04:40.533Z,5.30
2024-03-06T12:07:09.522Z,6.73
2024-03-06T12:09:41.426Z,9.47
2024-03-06T12:12:10.956Z,6.60
2024-03-06T12:14:41.055Z,6.17
2024-03-06T12:17:14.322Z,5.30
2024-03-06T12:19:44.878Z,5.67
2024-03-06T12:22:12.484Z,5.20
2024-03-06T12:24:39.782Z,4.77
2024-03-06T12:27:09.596Z,4.70
2024-03-06T12:29:39.284Z,5.00
2024-03-06T12:32:06.989Z,4.23
2024-03-06T12:34:34.445Z,5.20
2024-03-06T12:37:14.179Z,3.93
2024-03-06T12:39:43.610Z,4.20
2024-03-06T12:42:13.206Z,4.40
2024-03-06T12:44:41.982Z,4.23
2024-03-06T12:47:09.716Z,6.70
2024-03-06T12:49:36.995Z,5.17
2024-03-06T12:52:06.287Z,5.13
2024-03-06T12:54:33.787Z,3.80
2024-03-06T12:57:01.223Z,3.97
2024-03-06T12:59:28.628Z,4.17
2024-03-06T13:01:55.972Z,7.20
2024-03-06T13:04:23.284Z,11.47
2024-03-06T13:06:50.945Z,6.30
2024-03-06T13:09:18.168Z,4.60
2024-03-06T13:11:45.929Z,14.80
2024-03-06T13:14:13.686Z,8.07
2024-03-06T13:16:41.576Z,10.53
2024-03-06T13:19:09.484Z,11.47
2024-03-06T13:21:37.096Z,7.33
2024-03-06T13:24:04.719Z,5.87
2024-03-06T13:26:32.192Z,5.97
2024-03-06T13:29:01.124Z,6.90
2024-03-06T13:31:28.650Z,6.43
2024-03-06T13:33:56.045Z,5.80
2024-03-06T13:36:23.868Z,5.63
2024-03-06T13:38:51.469Z,6.03
2024-03-06T13:41:19.057Z,6.77
2024-03-06T13:43:46.415Z,8.63
2024-03-06T13:46:13.770Z,7.40
2024-03-06T13:48:41.092Z,9.00
2024-03-06T13:51:08.615Z,6.67
2024-03-06T13:53:35.955Z,6.83
2024-03-06T13:56:04.049Z,10.93
2024-03-06T13:58:31.735Z,7.73
2024-03-06T14:00:59.127Z,7.67
2024-03-06T14:03:26.913Z,6.47
2024-03-06T14:05:54.400Z,7.70
2024-03-06T14:08:23.541Z,9.47
2024-03-06T14:10:50.929Z,9.37
2024-03-06T14:13:18.370Z,9.67
2024-03-06T14:15:45.804Z,7.77
2024-03-06T14:18:13.244Z,7.23
2024-03-06T14:20:41.074Z,8.47
2024-03-06T14:23:09.193Z,6.83
2024-03-06T14:25:39.768Z,8.07
2024-03-06T14:28:07.330Z,7.00
2024-03-06T14:30:34.647Z,7.83
2024-03-06T14:33:02.229Z,7.53
2024-03-06T14:35:29.779Z,10.83
2024-03-06T14:37:57.133Z,8.53
2024-03-06T14:40:25.193Z,9.27
2024-03-06T14:42:54.755Z,9.53
2024-03-06T14:45:22.992Z,8.33
2024-03-06T14:47:50.445Z,6.97
2024-03-06T14:50:17.901Z,8.07
2024-03-06T14:52:45.296Z,6.90
2024-03-06T14:55:12.585Z,6.73
2024-03-06T14:57:40.002Z,7.47
2024-03-06T15:00:08.418Z,5.80
2024-03-06T15:02:36.068Z,7.10
2024-03-06T15:05:03.819Z,7.27
2024-03-06T15:07:31.725Z,5.53
2024-03-06T15:09:59.625Z,5.90
2024-03-06T15:12:26.887Z,5.60
2024-03-06T15:14:58.022Z,6.30
2024-03-06T15:17:29.108Z,6.27
2024-03-06T15:19:57.903Z,6.00
2024-03-06T15:22:25.286Z,5.83
2024-03-06T15:24:52.696Z,5.57
2024-03-06T15:27:20.035Z,6.83
2024-03-06T15:29:47.410Z,6.63
2024-03-06T15:32:14.856Z,5.97
2024-03-06T15:34:42.122Z,7.07
2024-03-06T15:37:09.421Z,6.63
2024-03-06T15:39:36.748Z,6.03
2024-03-06T15:42:04.255Z,6.73
2024-03-06T15:44:31.583Z,6.63
2024-03-06T15:47:06.717Z,8.30
2024-03-06T15:49:37.802Z,7.30
2024-03-06T15:52:05.197Z,8.80
2024-03-06T15:54:32.560Z,7.57
2024-03-06T15:56:59.876Z,9.13
2024-03-06T15:59:29.422Z,9.80
2024-03-06T16:01:57.012Z,9.53
2024-03-06T16:04:24.288Z,10.00
2024-03-06T16:06:51.724Z,11.77
2024-03-06T16:09:19.226Z,8.63
2024-03-06T16:11:46.794Z,9.60
2024-03-06T16:14:14.161Z,9.60
2024-03-06T16:16:42.095Z,8.23
2024-03-06T16:19:09.470Z,9.30
2024-03-06T16:21:38.068Z,8.27
2024-03-06T16:24:08.614Z,7.40
2024-03-06T16:26:38.339Z,7.67
2024-03-06T16:29:05.832Z,9.00
2024-03-06T16:31:33.288Z,8.63
2024-03-06T16:34:00.916Z,8.83
2024-03-06T16:36:28.596Z,8.40
2024-03-06T16:38:56.100Z,8.77
2024-03-06T16:41:23.464Z,7.77
2024-03-06T16:43:50.720Z,9.67
2024-03-06T16:46:18.625Z,8.00
2024-03-06T16:48:45.917Z,7.77
2024-03-06T16:51:19.294Z,8.40
2024-03-06T16:53:46.712Z,11.50
2024-03-06T16:56:14.339Z,12.30
2024-03-06T16:58:42.155Z,34.63
2024-03-06T17:01:09.512Z,45.67
2024-03-06T17:03:37.048Z,14.50
2024-03-06T17:06:04.465Z,13.57
2024-03-06T17:08:31.801Z,7.57
2024-03-06T17:10:59.412Z,7.10
2024-03-06T17:13:27.082Z,7.63
2024-03-06T17:15:55.934Z,7.90
2024-03-06T17:18:23.489Z,8.03
2024-03-06T17:20:51.255Z,8.57
2024-03-06T17:23:19.021Z,10.03
2024-03-06T17:25:46.480Z,11.07
2024-03-06T17:28:13.877Z,10.97
2024-03-06T17:30:42.653Z,12.97
2024-03-06T17:33:10.019Z,11.40
2024-03-06T17:35:37.460Z,11.00
2024-03-06T17:38:04.914Z,11.07
2024-03-06T17:40:32.328Z,10.50
2024-03-06T17:42:59.569Z,10.30
2024-03-06T17:45:27.294Z,12.90
2024-03-06T17:47:55.402Z,11.60
2024-03-06T17:50:23.675Z,12.17
2024-03-06T17:52:53.402Z,11.27
2024-03-06T17:55:21.352Z,11.20
2024-03-06T17:57:49.833Z,14.90
2024-03-06T18:00:18.370Z,14.27
2024-03-06T18:02:45.996Z,12.33
2024-03-06T18:05:14.230Z,14.00
2024-03-06T18:07:47.629Z,15.27
2024-03-06T18:10:17.043Z,17.80
2024-03-06T18:12:44.497Z,15.30
2024-03-06T18:15:12.056Z,13.93
2024-03-06T18:17:39.691Z,13.73
2024-03-06T18:20:08.803Z,11.63
2024-03-06T18:22:37.111Z,12.87
2024-03-06T18:25:05.690Z,13.30
2024-03-06T18:27:33.477Z,12.53
2024-03-06T18:30:00.852Z,14.67
2024-03-06T18:32:29.892Z,21.83
2024-03-06T18:34:59.095Z,24.10
2024-03-06T18:37:46.961Z,18.13
2024-03-06T18:40:14.574Z,24.93
2024-03-06T18:42:42.609Z,23.97
2024-03-06T18:45:10.470Z,23.23
2024-03-06T18:47:38.223Z,17.47
2024-03-06T18:50:05.887Z,16.50
2024-03-06T18:52:33.332Z,16.17
2024-03-06T18:55:00.610Z,12.17
2024-03-06T18:57:28.989Z,13.17
2024-03-06T18:59:56.340Z,12.63
2024-03-06T19:02:23.843Z,14.27
2024-03-06T19:04:51.386Z,15.13
2024-03-06T19:07:19.920Z,15.33
2024-03-06T19:09:47.609Z,15.37
2024-03-06T19:12:15.245Z,15.27
2024-03-06T19:14:43.057Z,13.33
2024-03-06T19:17:10.370Z,14.20
2024-03-06T19:19:37.714Z,14.23
2024-03-06T19:22:06.195Z,15.17
2024-03-06T19:24:33.500Z,16.50
2024-03-06T19:27:00.761Z,14.77
2024-03-06T19:29:28.109Z,15.20
2024-03-06T19:31:56.166Z,16.37
2024-03-06T19:34:23.584Z,20.23
2024-03-06T19:36:55.878Z,18.53
2024-03-06T19:39:24.320Z,16.87
2024-03-06T19:41:57.188Z,18.97
2024-03-06T19:44:27.774Z,20.90
2024-03-06T19:46:55.333Z,17.07
2024-03-06T19:49:22.855Z,17.90
2024-03-06T19:51:52.956Z,30.47
2024-03-06T19:54:20.821Z,36.17
2024-03-06T19:56:52.235Z,33.07
2024-03-06T19:59:19.565Z,21.53
2024-03-06T20:01:47.269Z,19.57
2024-03-06T20:04:14.838Z,16.80
2024-03-06T20:06:42.216Z,18.27
2024-03-06T20:09:09.989Z,19.07
2024-03-06T20:11:37.308Z,18.50
2024-03-06T20:14:05.041Z,17.17
2024-03-06T20:16:32.450Z,18.67
2024-03-06T20:19:00.892Z,19.67
2024-03-06T20:21:28.440Z,20.80
2024-03-06T20:23:55.946Z,18.67
2024-03-06T20:26:23.362Z,18.67
2024-03-06T20:28:51.781Z,19.23
2024-03-06T20:31:19.407Z,17.23
2024-03-06T20:33:46.763Z,19.57
2024-03-06T20:36:14.174Z,18.43
2024-03-06T20:38:41.518Z,18.77
2024-03-06T20:41:08.973Z,20.13
2024-03-06T20:43:40.437Z,29.67
2024-03-06T20:46:09.548Z,20.93
2024-03-06T20:48:38.173Z,23.20
2024-03-06T20:51:10.556Z,23.10
2024-03-06T20:53:37.849Z,23.20
2024-03-06T20:56:05.278Z,20.67
2024-03-06T20:58:32.617Z,23.30
2024-03-06T21:01:01.422Z,21.27
2024-03-06T21:03:29.845Z,20.50
2024-03-06T21:05:57.222Z,21.80
2024-03-06T21:08:24.825Z,23.77
2024-03-06T21:10:52.252Z,21.37
2024-03-06T21:13:19.562Z,22.00
2024-03-06T21:15:47.382Z,22.60
2024-03-06T21:18:15.453Z,21.67
2024-03-06T21:20:42.863Z,23.17
2024-03-06T21:23:10.230Z,22.30
2024-03-06T21:25:37.490Z,22.13
2024-03-06T21:28:04.788Z,24.20
2024-03-06T21:30:32.170Z,25.17
2024-03-06T21:32:59.564Z,26.90
2024-03-06T21:35:27.615Z,29.83
2024-03-06T21:37:54.990Z,28.87
2024-03-06T21:40:22.424Z,29.30
2024-03-06T21:42:49.709Z,30.83
2024-03-06T21:45:16.977Z,31.90
2024-03-06T21:47:44.461Z,32.17
2024-03-06T21:50:13.978Z,33.33
2024-03-06T21:52:41.477Z,30.90
2024-03-06T21:55:09.760Z,34.57
2024-03-06T21:57:37.045Z,36.90
2024-03-06T22:00:05.388Z,36.20
2024-03-06T22:02:32.752Z,42.80
2024-03-06T22:05:00.762Z,39.63
2024-03-06T22:07:28.056Z,43.93
2024-03-06T22:09:55.406Z,46.40
2024-03-06T22:12:24.038Z,46.93
2024-03-06T22:14:51.340Z,47.33
2024-03-06T22:17:19.662Z,51.53
2024-03-06T22:19:46.920Z,46.50
2024-03-06T22:22:17.047Z,51.40
2024-03-06T22:24:44.478Z,49.20
2024-03-06T22:27:11.773Z,52.40
2024-03-06T22:29:39.198Z,48.40
2024-03-06T22:32:06.601Z,49.00
2024-03-06T22:34:35.501Z,47.10
2024-03-06T22:37:02.747Z,53.87
2024-03-06T22:39:30.056Z,52.83
2024-03-06T22:41:57.598Z,55.77
2024-03-06T22:44:25.712Z,52.20
2024-03-06T22:46:57.553Z,57.73
2024-03-06T22:49:25.752Z,55.20
2024-03-06T22:51:53.779Z,53.40
2024-03-06T22:54:21.282Z,52.90
2024-03-06T22:56:48.834Z,57.77
2024-03-06T22:59:16.415Z,52.07
2024-03-06T23:01:45.658Z,55.33
2024-03-06T23:04:13.159Z,55.63
2024-03-06T23:06:40.430Z,50.47
2024-03-06T23:09:08.536Z,56.53
2024-03-06T23:11:36.738Z,53.10
2024-03-06T23:14:04.135Z,54.63
2024-03-06T23:16:31.537Z,51.17
2024-03-06T23:18:58.817Z,50.57
2024-03-06T23:21:26.565Z,51.73
2024-03-06T23:23:54.001Z,48.33
2024-03-06T23:26:21.392Z,46.20
2024-03-06T23:28:48.749Z,47.30
2024-03-06T23:31:15.997Z,52.47
2024-03-06T23:33:43.446Z,48.10
2024-03-06T23:36:10.689Z,46.00
2024-03-06T23:38:38.388Z,48.33
2024-03-06T23:41:05.650Z,49.10
2024-03-06T23:43:33.526Z,52.87
2024-03-06T23:46:00.890Z,50.77
2024-03-06T23:48:28.279Z,47.50
2024-03-06T23:50:55.892Z,50.83
2024-03-06T23:53:23.285Z,47.47
2024-03-06T23:55:50.755Z,54.70
2024-03-06T23:58:18.007Z,50.73
